Flight Track Log - Related Links

Times and Time Zones

All times are in EDT time to prevent confusion due to time zone crossing. See the PDT4147 flight status page for this flight to view local times or setup timezone preferences in your user account.

Time Position Orientation Groundspeed Altitude Reporting Facility
EDT Latitude Longitude Course Direction KTS MPH feet Rate Location/Type
Fri 04:19:00 PM 37.1557 -79.9870 195° South  Level FlightAware Approximate
Fri 04:20:00 PM 37.1035 -80.0066 202° Southwest  Level FlightAware Approximate
Fri 04:21:00 PM 37.0515 -80.0273 195° South  Level FlightAware Approximate
Fri 04:22:00 PM 36.9975 -80.0333 180° South  Level FlightAware Approximate
Fri 04:23:00 PM 36.9339 -80.0308 176° South  Level FlightAware Approximate
Fri 04:24:00 PM 36.8704 -80.0259 176° South  Level FlightAware Approximate
Fri 04:25:00 PM 36.8068 -80.0210 176° South  Level FlightAware Approximate
Fri 04:26:00 PM 36.7433 -80.0167 180° South  Level FlightAware Approximate
Fri 04:27:00 PM 36.6796 -80.0143 177° South  Level FlightAware Approximate
Fri 04:28:00 PM 36.6160 -80.0104 177° South  Level FlightAware Approximate
Fri 04:29:00 PM 36.5524 -80.0064 177° South  Level FlightAware Approximate
Fri 04:30:00 PM 36.4888 -80.0024 177° South  Level FlightAware Approximate
Fri 04:31:00 PM 36.4253 -79.9969 174° South  Level FlightAware Approximate
Fri 04:32:00 PM 36.3620 -79.9890 174° South  Level FlightAware Approximate
Fri 04:33:00 PM 36.2986 -79.9823 177° South  Level FlightAware Approximate
Fri 04:34:00 PM 36.2350 -79.9785 177° South  Level FlightAware Approximate
Fri 04:35:00 PM 36.1714 -79.9748 177° South  Level FlightAware Approximate
Fri 04:36:00 PM 36.1078 -79.9710 177° South  Level FlightAware Approximate
Fri 04:37:00 PM 36.0442 -79.9673 177° South  Level FlightAware Approximate
Fri 04:38:00 PM 35.9992 -80.0165 230° Southwest  Level FlightAware Approximate
Fri 04:39:00 PM 35.9580 -80.0765 230° Southwest  Level FlightAware Approximate
Fri 04:39:52 PM 35.9622 -80.3831 227° Southwest 266 306 7,900  Level Atlanta Center
Fri 04:40:00 PM 35.9168 -80.1365 230° Southwest  Level FlightAware Approximate
Fri 04:40:41 PM 35.9067 -80.4111 202° Southwest 259 298 6,800  Level Atlanta Center
Fri 04:41:00 PM 35.8755 -80.1963 230° Southwest  Level FlightAware Approximate
Fri 04:41:42 PM 35.8450 -80.4472 205° Southwest 249 287 6,000  Level Atlanta Center
Fri 04:42:00 PM 35.8329 -80.2547 225° Southwest  Level FlightAware Approximate
Fri 04:42:43 PM 35.7814 -80.4781 201° Southwest 239 275 6,000  Level Atlanta Center
Fri 04:43:00 PM 35.7882 -80.3106 225° Southwest  Level FlightAware Approximate
Fri 04:43:44 PM 35.7219 -80.5114 204° Southwest 219 252 6,000  Level Atlanta Center
Fri 04:44:00 PM 35.7502 -80.3610 227° Southwest  Level FlightAware Approximate
Fri 04:44:51 PM 35.6667 -80.5547 212° Southwest 222 255 6,000  Level Atlanta Center
Fri 04:45:00 PM 35.7122 -80.4115 227° Southwest  Level FlightAware Approximate
Fri 04:45:46 PM 35.6156 -80.5875 208° Southwest 221 254 6,000  Level Atlanta Center
Fri 04:46:54 PM 35.5583 -80.6308 212° Southwest 211 243 6,000 -47 Level Atlanta Center
Fri 04:47:55 PM 35.5050 -80.6636 207° Southwest 214 246 5,900 -295 Descending Atlanta Center
Fri 04:48:56 PM 35.4517 -80.7014 210° Southwest 217 250 5,400 -885 Descending Atlanta Center
Fri 04:49:57 PM 35.4025 -80.7342 209° Southwest 209 241 4,100 -724 Descending Atlanta Center
Fri 04:50:52 PM 35.3575 -80.7639 208° Southwest 199 229 4,000 -109 Descending Atlanta Center

Login

Don't have an account? Register now (free) for customized features, flight alerts, and more!